Time;durP1;ratioP1;P1;durP2;ratioP2;P2;SDS_P1;SDS_P2;PMS_P1;PMS_P2;Temp;Humidity;BMP_temperature;BMP_pressure;BME280_temperature;BME280_humidity;BME280_pressure;Samples;Min_cycle;Max_cycle;Signal;HPM_P1;HPM_P2
2023/05/12 00:00:16;;;;;;;41.22;31.20;;;;;;;;;;5041443;28;20951;-65
2023/05/12 00:02:41;;;;;;;43.90;29.67;;;;;;;;;;5054542;28;20024;-66
2023/05/12 00:05:07;;;;;;;40.03;27.85;;;;;;;;;;5047354;28;20222;-66
2023/05/12 00:07:32;;;;;;;38.88;28.88;;;;;;;;;;5058439;28;20531;-66
2023/05/12 00:09:57;;;;;;;39.97;30.70;;;;;;;;;;5092195;28;20544;-65
2023/05/12 00:12:23;;;;;;;41.45;30.25;;;;;;;;;;5092657;28;20410;-65
2023/05/12 00:14:48;;;;;;;40.58;31.58;;;;;;;;;;5091937;28;20059;-65
2023/05/12 00:17:13;;;;;;;42.30;30.75;;;;;;;;;;5093094;28;20032;-65
2023/05/12 00:19:41;;;;;;;36.70;31.60;;;;;;;;;;5075666;28;20028;-65
2023/05/12 00:22:06;;;;;;;48.25;35.08;;;;;;;;;;5045791;28;20267;-65
2023/05/12 00:24:32;;;;;;;57.50;34.50;;;;;;;;;;5039367;28;20060;-66
2023/05/12 00:26:57;;;;;;;40.55;32.08;;;;;;;;;;5088341;28;20489;-65
2023/05/12 00:29:22;;;;;;;46.47;34.05;;;;;;;;;;5069395;28;20115;-66
2023/05/12 00:31:47;;;;;;;39.33;32.35;;;;;;;;;;5046617;28;20113;-65
2023/05/12 00:34:13;;;;;;;47.95;35.28;;;;;;;;;;5063575;28;20466;-65
2023/05/12 00:36:38;;;;;;;40.65;31.83;;;;;;;;;;5092396;28;20020;-66
2023/05/12 00:39:04;;;;;;;40.75;33.72;;;;;;;;;;5091629;28;20027;-66
2023/05/12 00:41:29;;;;;;;45.42;36.70;;;;;;;;;;5088029;28;20466;-66
2023/05/12 00:43:54;;;;;;;47.55;36.65;;;;;;;;;;5090485;28;20028;-66
2023/05/12 00:46:20;;;;;;;60.42;43.00;;;;;;;;;;5086953;28;20016;-65
2023/05/12 00:48:45;;;;;;;60.28;40.10;;;;;;;;;;5091432;28;20024;-66
2023/05/12 00:51:11;;;;;;;60.40;44.70;;;;;;;;;;5091322;28;20364;-65
2023/05/12 00:53:36;;;;;;;48.60;41.35;;;;;;;;;;5088201;28;20047;-65
2023/05/12 00:56:02;;;;;;;56.03;41.95;;;;;;;;;;5091428;28;20059;-65
2023/05/12 00:58:27;;;;;;;55.03;45.58;;;;;;;;;;5091064;28;20028;-65
2023/05/12 01:00:53;;;;;;;56.92;44.88;;;;;;;;;;5091901;28;20025;-65
2023/05/12 01:03:18;;;;;;;51.40;41.00;;;;;;;;;;5084537;28;20065;-66
2023/05/12 01:05:55;;;;;;;52.53;41.92;;;;;;;;;;5091496;28;20032;-65
2023/05/12 01:08:22;;;;;;;62.90;44.22;;;;;;;;;;5091735;28;20028;-65
2023/05/12 01:10:47;;;;;;;53.72;42.13;;;;;;;;;;5091110;28;20062;-65
2023/05/12 01:13:12;;;;;;;57.22;44.10;;;;;;;;;;5089830;28;20536;-66
2023/05/12 01:15:41;;;;;;;61.95;47.95;;;;;;;;;;5090865;28;20086;-65
2023/05/12 01:18:08;;;;;;;57.92;45.67;;;;;;;;;;5091047;28;20043;-65
2023/05/12 01:20:34;;;;;;;54.92;44.92;;;;;;;;;;5084595;28;20020;-66
2023/05/12 01:23:00;;;;;;;56.30;44.78;;;;;;;;;;5092046;28;20099;-65
2023/05/12 01:25:28;;;;;;;60.50;45.28;;;;;;;;;;5091545;28;20119;-65
2023/05/12 01:27:53;;;;;;;54.38;45.08;;;;;;;;;;5091041;28;20024;-65
2023/05/12 01:30:19;;;;;;;64.60;46.63;;;;;;;;;;5091269;28;20024;-65
2023/05/12 01:32:44;;;;;;;55.50;44.83;;;;;;;;;;5091328;28;20035;-65
2023/05/12 01:35:10;;;;;;;57.17;43.15;;;;;;;;;;5089954;28;20070;-65
2023/05/12 01:37:35;;;;;;;52.97;40.78;;;;;;;;;;5091174;28;20028;-65
2023/05/12 01:40:01;;;;;;;52.80;39.55;;;;;;;;;;5091015;28;20056;-65
2023/05/12 01:42:26;;;;;;;39.78;35.53;;;;;;;;;;5072922;28;20386;-65
2023/05/12 01:44:52;;;;;;;43.28;36.70;;;;;;;;;;5091510;28;20024;-65
2023/05/12 01:47:17;;;;;;;47.00;36.22;;;;;;;;;;5091180;28;20059;-65
2023/05/12 01:49:42;;;;;;;42.10;33.03;;;;;;;;;;5079892;28;20039;-65
2023/05/12 01:52:07;;;;;;;39.47;34.50;;;;;;;;;;5046704;28;20039;-65
2023/05/12 01:54:33;;;;;;;38.45;33.10;;;;;;;;;;5046223;28;20063;-65
2023/05/12 01:56:58;;;;;;;36.25;31.85;;;;;;;;;;5045189;28;20134;-65
2023/05/12 01:59:23;;;;;;;38.78;34.45;;;;;;;;;;5047060;28;20870;-65
2023/05/12 02:01:48;;;;;;;45.37;35.17;;;;;;;;;;5043936;28;20062;-65
2023/05/12 02:04:14;;;;;;;45.03;36.67;;;;;;;;;;5046193;28;20269;-65
2023/05/12 02:06:39;;;;;;;41.97;34.70;;;;;;;;;;5045955;28;20803;-65
2023/05/12 02:09:04;;;;;;;44.15;35.30;;;;;;;;;;5045186;28;20646;-65
2023/05/12 02:11:30;;;;;;;38.75;33.17;;;;;;;;;;5047573;28;20146;-65
2023/05/12 02:13:55;;;;;;;35.20;30.80;;;;;;;;;;5084436;28;20101;-66
2023/05/12 02:16:20;;;;;;;40.20;29.45;;;;;;;;;;5090228;28;20042;-65
2023/05/12 02:18:45;;;;;;;39.72;31.70;;;;;;;;;;5036813;28;20029;-66
2023/05/12 02:21:11;;;;;;;35.97;30.40;;;;;;;;;;5044699;28;20024;-66
2023/05/12 02:23:36;;;;;;;42.60;32.45;;;;;;;;;;5061891;28;20028;-66
2023/05/12 02:26:01;;;;;;;44.63;36.92;;;;;;;;;;5089086;28;20024;-66
2023/05/12 02:28:27;;;;;;;38.90;33.90;;;;;;;;;;5090041;28;20051;-65
2023/05/12 02:30:53;;;;;;;41.63;33.80;;;;;;;;;;5064955;28;20028;-66
2023/05/12 02:33:19;;;;;;;45.03;33.40;;;;;;;;;;5045957;28;20785;-66
2023/05/12 02:35:44;;;;;;;42.50;35.42;;;;;;;;;;5045891;28;20127;-66
2023/05/12 02:38:10;;;;;;;40.65;34.13;;;;;;;;;;5043905;28;20039;-66
2023/05/12 02:40:35;;;;;;;39.13;32.67;;;;;;;;;;5045691;28;20024;-65
2023/05/12 02:43:01;;;;;;;32.80;27.38;;;;;;;;;;5057270;28;20024;-65
2023/05/12 02:45:26;;;;;;;25.52;22.67;;;;;;;;;;5090445;28;20123;-65
2023/05/12 02:47:51;;;;;;;25.10;21.02;;;;;;;;;;5090908;28;20023;-66
2023/05/12 02:50:16;;;;;;;29.13;22.10;;;;;;;;;;5089828;28;20054;-66
2023/05/12 02:52:42;;;;;;;25.05;20.35;;;;;;;;;;5089178;28;20023;-66
2023/05/12 02:55:07;;;;;;;21.67;18.10;;;;;;;;;;5090410;28;20071;-66
2023/05/12 02:57:32;;;;;;;18.92;15.68;;;;;;;;;;5084999;28;20674;-66
2023/05/12 03:00:04;;;;;;;19.55;16.35;;;;;;;;;;5054527;28;20873;-68
2023/05/12 03:02:30;;;;;;;18.40;14.50;;;;;;;;;;5045408;28;20024;-67
2023/05/12 03:04:55;;;;;;;20.08;15.30;;;;;;;;;;5042940;28;20027;-66
2023/05/12 03:07:20;;;;;;;16.00;13.65;;;;;;;;;;5074977;28;20024;-66
2023/05/12 03:09:45;;;;;;;17.27;12.18;;;;;;;;;;5093724;28;20451;-65
2023/05/12 03:12:11;;;;;;;20.20;13.90;;;;;;;;;;5093109;28;20012;-65
2023/05/12 03:14:36;;;;;;;17.98;13.93;;;;;;;;;;5093261;28;20028;-66
2023/05/12 03:17:01;;;;;;;15.23;12.13;;;;;;;;;;5093851;28;20031;-66
2023/05/12 03:19:26;;;;;;;14.77;12.60;;;;;;;;;;5093311;28;20715;-66
2023/05/12 03:21:52;;;;;;;14.75;11.10;;;;;;;;;;5089527;28;20293;-66
2023/05/12 03:24:17;;;;;;;15.10;11.55;;;;;;;;;;5069883;28;20099;-66
2023/05/12 03:26:42;;;;;;;16.70;12.00;;;;;;;;;;5050448;28;21112;-65
2023/05/12 03:29:08;;;;;;;14.32;12.07;;;;;;;;;;5048157;28;20746;-65
2023/05/12 03:31:33;;;;;;;14.52;10.90;;;;;;;;;;5048649;28;20028;-64
2023/05/12 03:33:58;;;;;;;16.27;11.55;;;;;;;;;;5035227;28;20032;-65
2023/05/12 03:36:24;;;;;;;14.77;11.70;;;;;;;;;;5047753;28;20046;-65
2023/05/12 03:38:49;;;;;;;12.40;11.20;;;;;;;;;;5041469;28;20023;-64
2023/05/12 03:41:15;;;;;;;13.02;11.48;;;;;;;;;;5048746;28;20070;-67
2023/05/12 03:43:41;;;;;;;13.55;11.10;;;;;;;;;;5048106;28;20048;-64
2023/05/12 03:46:06;;;;;;;20.23;12.70;;;;;;;;;;5040718;28;20031;-64
2023/05/12 03:48:33;;;;;;;14.20;11.43;;;;;;;;;;5052549;28;20830;-64
2023/05/12 03:50:58;;;;;;;14.70;13.18;;;;;;;;;;5045611;28;20165;-63
2023/05/12 03:53:24;;;;;;;13.98;12.23;;;;;;;;;;5045920;28;20027;-64
2023/05/12 03:55:49;;;;;;;13.40;12.00;;;;;;;;;;5047900;28;20826;-63
2023/05/12 03:58:15;;;;;;;17.00;12.07;;;;;;;;;;5047362;28;20027;-63
2023/05/12 04:00:40;;;;;;;16.90;13.68;;;;;;;;;;5047735;28;20016;-63
2023/05/12 04:03:05;;;;;;;16.55;11.88;;;;;;;;;;5046632;28;20065;-64
2023/05/12 04:05:30;;;;;;;15.35;12.93;;;;;;;;;;5048046;28;20906;-63
2023/05/12 04:07:56;;;;;;;22.48;14.27;;;;;;;;;;5046898;28;20031;-63
2023/05/12 04:10:21;;;;;;;13.85;12.45;;;;;;;;;;5047475;28;20021;-63
2023/05/12 04:12:46;;;;;;;20.25;14.25;;;;;;;;;;5046333;28;20126;-63
2023/05/12 04:15:13;;;;;;;14.48;12.65;;;;;;;;;;5047682;28;20059;-63
2023/05/12 04:17:38;;;;;;;12.68;11.32;;;;;;;;;;5044651;28;20028;-63
2023/05/12 04:20:04;;;;;;;12.52;11.07;;;;;;;;;;5069358;28;20036;-65
2023/05/12 04:22:29;;;;;;;10.80;9.70;;;;;;;;;;5092061;28;20474;-66
2023/05/12 04:24:54;;;;;;;13.75;10.07;;;;;;;;;;5092343;28;20043;-64
2023/05/12 04:27:20;;;;;;;11.15;9.48;;;;;;;;;;5092621;28;20016;-64
2023/05/12 04:29:45;;;;;;;10.32;8.55;;;;;;;;;;5092093;28;20493;-63
2023/05/12 04:32:10;;;;;;;7.45;6.60;;;;;;;;;;5092290;28;20390;-67
2023/05/12 04:34:36;;;;;;;7.28;5.72;;;;;;;;;;5091425;28;20379;-67
2023/05/12 04:37:01;;;;;;;7.75;6.60;;;;;;;;;;5091917;28;20095;-64
2023/05/12 04:39:26;;;;;;;8.85;6.65;;;;;;;;;;5092066;28;20023;-64
2023/05/12 04:41:52;;;;;;;7.85;5.55;;;;;;;;;;5092109;28;20088;-64
2023/05/12 04:44:17;;;;;;;5.97;4.88;;;;;;;;;;5092157;28;20036;-65
2023/05/12 04:46:42;;;;;;;6.20;4.80;;;;;;;;;;5084451;28;20039;-64
2023/05/12 04:49:07;;;;;;;5.47;4.22;;;;;;;;;;5086305;28;20039;-66
2023/05/12 04:51:33;;;;;;;8.52;4.97;;;;;;;;;;5092313;28;20020;-65
2023/05/12 04:53:58;;;;;;;6.63;4.15;;;;;;;;;;5078606;28;20032;-64
2023/05/12 04:56:23;;;;;;;4.07;3.35;;;;;;;;;;5091382;28;20110;-66
2023/05/12 04:58:49;;;;;;;5.68;4.05;;;;;;;;;;5091114;28;20447;-64
2023/05/12 05:01:14;;;;;;;5.15;3.78;;;;;;;;;;5091742;28;20871;-64
2023/05/12 05:03:40;;;;;;;5.65;3.53;;;;;;;;;;5089689;28;20107;-66
2023/05/12 05:06:05;;;;;;;4.22;3.45;;;;;;;;;;5091974;28;20490;-65
2023/05/12 05:08:30;;;;;;;5.07;3.35;;;;;;;;;;5091720;28;20027;-63
2023/05/12 05:10:56;;;;;;;6.97;3.88;;;;;;;;;;5092041;28;20411;-64
2023/05/12 05:13:21;;;;;;;5.35;3.42;;;;;;;;;;5091600;28;20020;-64
2023/05/12 05:15:50;;;;;;;4.90;3.85;;;;;;;;;;5091368;28;20422;-65
2023/05/12 05:18:15;;;;;;;5.70;3.90;;;;;;;;;;5091795;28;20454;-65
2023/05/12 05:20:41;;;;;;;5.72;4.07;;;;;;;;;;5091534;28;20063;-65
2023/05/12 05:23:06;;;;;;;6.03;4.22;;;;;;;;;;5091572;28;20031;-64
2023/05/12 05:25:31;;;;;;;5.47;3.72;;;;;;;;;;5091207;28;20020;-64
2023/05/12 05:27:57;;;;;;;5.55;4.28;;;;;;;;;;5077252;28;20028;-64
2023/05/12 05:30:22;;;;;;;8.02;4.63;;;;;;;;;;5091449;28;20050;-64
2023/05/12 05:32:47;;;;;;;5.95;4.75;;;;;;;;;;5091110;28;20173;-64
2023/05/12 05:35:12;;;;;;;5.63;3.95;;;;;;;;;;5091611;28;20019;-64
2023/05/12 05:37:38;;;;;;;6.22;4.30;;;;;;;;;;5091318;28;20473;-64
2023/05/12 05:40:03;;;;;;;5.57;3.97;;;;;;;;;;5076479;28;20029;-64
2023/05/12 05:42:29;;;;;;;5.05;4.10;;;;;;;;;;5091007;28;20020;-64
2023/05/12 05:44:55;;;;;;;8.82;4.60;;;;;;;;;;5090953;28;20024;-66
2023/05/12 05:47:20;;;;;;;5.10;4.40;;;;;;;;;;5091432;28;20107;-65
2023/05/12 05:49:45;;;;;;;5.55;3.92;;;;;;;;;;5090670;28;20016;-64
2023/05/12 05:52:10;;;;;;;6.43;4.07;;;;;;;;;;5090611;28;20099;-64
2023/05/12 05:54:36;;;;;;;6.15;4.90;;;;;;;;;;5090312;28;20032;-64
2023/05/12 05:57:01;;;;;;;9.80;5.07;;;;;;;;;;5089155;28;20071;-63
2023/05/12 05:59:27;;;;;;;8.77;5.53;;;;;;;;;;5083803;28;20036;-63
2023/05/12 06:01:52;;;;;;;10.15;6.07;;;;;;;;;;5048934;28;20027;-64
2023/05/12 06:04:17;;;;;;;8.38;6.22;;;;;;;;;;5057400;28;20055;-64
2023/05/12 06:06:43;;;;;;;13.43;8.15;;;;;;;;;;5090499;28;20520;-64
2023/05/12 06:09:11;;;;;;;11.27;9.38;;;;;;;;;;5091097;28;20019;-63
2023/05/12 06:11:36;;;;;;;18.40;9.73;;;;;;;;;;5085972;28;20095;-63
2023/05/12 06:14:01;;;;;;;18.75;9.38;;;;;;;;;;5090127;28;20505;-64
2023/05/12 06:16:27;;;;;;;13.25;9.93;;;;;;;;;;5089882;28;20083;-63
2023/05/12 06:18:53;;;;;;;15.88;11.23;;;;;;;;;;5090286;28;20036;-63
2023/05/12 06:21:18;;;;;;;23.40;12.93;;;;;;;;;;5089581;28;20107;-63
2023/05/12 06:23:43;;;;;;;20.88;13.73;;;;;;;;;;5090680;28;20378;-63
2023/05/12 06:26:09;;;;;;;20.20;13.70;;;;;;;;;;5090689;28;20065;-63
2023/05/12 06:28:34;;;;;;;25.73;15.23;;;;;;;;;;5067846;28;20031;-63
2023/05/12 06:30:59;;;;;;;26.33;15.13;;;;;;;;;;5034658;28;20036;-63
2023/05/12 06:33:24;;;;;;;22.27;14.63;;;;;;;;;;5034739;28;20028;-63
2023/05/12 06:35:50;;;;;;;38.45;17.63;;;;;;;;;;5041849;28;20032;-63
2023/05/12 06:38:15;;;;;;;31.63;17.15;;;;;;;;;;5073734;28;20419;-64
2023/05/12 06:40:40;;;;;;;40.37;19.60;;;;;;;;;;5092735;28;20016;-64
2023/05/12 06:43:06;;;;;;;38.07;19.70;;;;;;;;;;5093764;28;20289;-65
2023/05/12 06:45:31;;;;;;;32.20;19.52;;;;;;;;;;5093127;28;20752;-64
2023/05/12 06:47:57;;;;;;;43.95;22.65;;;;;;;;;;5094313;28;20059;-64
2023/05/12 06:50:22;;;;;;;27.25;18.75;;;;;;;;;;5092900;28;20028;-64
2023/05/12 06:52:47;;;;;;;23.60;17.83;;;;;;;;;;5094114;28;20470;-64
2023/05/12 06:55:14;;;;;;;27.20;18.42;;;;;;;;;;5075506;28;20040;-64
2023/05/12 06:57:40;;;;;;;28.58;17.48;;;;;;;;;;5093461;28;20020;-64
2023/05/12 07:00:08;;;;;;;32.30;17.33;;;;;;;;;;5093405;28;20131;-65
2023/05/12 07:02:33;;;;;;;24.25;18.83;;;;;;;;;;5093395;28;20493;-64
2023/05/12 07:04:59;;;;;;;38.00;18.73;;;;;;;;;;5091987;28;20048;-64
2023/05/12 07:07:24;;;;;;;26.00;17.80;;;;;;;;;;5083748;28;20025;-64
2023/05/12 07:09:49;;;;;;;40.33;18.17;;;;;;;;;;5090102;28;20069;-64
2023/05/12 07:12:14;;;;;;;30.33;16.52;;;;;;;;;;5093835;28;20457;-64
2023/05/12 07:14:40;;;;;;;17.98;14.98;;;;;;;;;;5093647;28;20120;-64
2023/05/12 07:17:05;;;;;;;20.15;16.83;;;;;;;;;;5092596;28;20031;-64
2023/05/12 07:19:30;;;;;;;21.02;15.95;;;;;;;;;;5093388;28;20039;-64
2023/05/12 07:21:57;;;;;;;16.25;13.98;;;;;;;;;;5093889;28;20031;-64
2023/05/12 07:24:22;;;;;;;22.52;17.15;;;;;;;;;;5093131;28;20024;-64
2023/05/12 07:26:47;;;;;;;20.20;16.95;;;;;;;;;;5092878;28;20389;-64
2023/05/12 07:29:13;;;;;;;28.70;18.63;;;;;;;;;;5092855;28;20032;-64
2023/05/12 07:31:38;;;;;;;29.67;19.25;;;;;;;;;;5088889;28;20020;-64
2023/05/12 07:34:03;;;;;;;26.48;19.48;;;;;;;;;;5064767;28;20020;-64
2023/05/12 07:36:29;;;;;;;31.20;18.80;;;;;;;;;;5092773;28;20052;-64
2023/05/12 07:38:54;;;;;;;32.30;20.60;;;;;;;;;;5091892;28;20020;-64
2023/05/12 07:41:20;;;;;;;29.42;20.42;;;;;;;;;;5093340;28;20020;-64
2023/05/12 07:43:45;;;;;;;30.30;18.75;;;;;;;;;;5092286;28;20459;-64
2023/05/12 07:46:10;;;;;;;26.90;20.73;;;;;;;;;;5092698;28;20099;-64
2023/05/12 07:48:38;;;;;;;34.83;20.60;;;;;;;;;;5085028;28;20992;-64
2023/05/12 07:51:04;;;;;;;24.83;20.30;;;;;;;;;;5034031;28;20083;-64
2023/05/12 07:53:29;;;;;;;27.65;20.67;;;;;;;;;;5044842;28;20874;-64
2023/05/12 07:55:54;;;;;;;28.33;21.27;;;;;;;;;;5044307;28;20560;-64
2023/05/12 07:58:19;;;;;;;26.45;21.60;;;;;;;;;;5091167;28;20040;-64
2023/05/12 08:00:45;;;;;;;26.85;21.10;;;;;;;;;;5091043;28;20088;-64
2023/05/12 08:03:10;;;;;;;30.63;22.73;;;;;;;;;;5092224;28;20043;-64
2023/05/12 08:05:35;;;;;;;24.45;19.38;;;;;;;;;;5093125;28;20012;-64
2023/05/12 08:08:00;;;;;;;23.60;19.55;;;;;;;;;;5083374;28;20023;-64
2023/05/12 08:10:28;;;;;;;26.92;19.52;;;;;;;;;;5090998;28;20026;-64
2023/05/12 08:12:54;;;;;;;20.75;17.65;;;;;;;;;;5086814;28;20027;-64
2023/05/12 08:15:19;;;;;;;23.30;17.75;;;;;;;;;;5091297;28;20028;-64
2023/05/12 08:17:44;;;;;;;24.60;15.30;;;;;;;;;;5091839;28;20027;-65
2023/05/12 08:20:10;;;;;;;22.77;14.38;;;;;;;;;;5092465;28;20036;-64
2023/05/12 08:22:35;;;;;;;15.57;13.93;;;;;;;;;;5090721;28;20047;-64
2023/05/12 08:25:00;;;;;;;22.23;15.27;;;;;;;;;;5086140;28;20016;-64
2023/05/12 08:27:26;;;;;;;13.17;11.53;;;;;;;;;;5085592;28;20050;-64
2023/05/12 08:29:51;;;;;;;13.20;10.15;;;;;;;;;;5091461;28;20645;-65
2023/05/12 08:32:16;;;;;;;18.80;10.40;;;;;;;;;;5092191;28;20028;-65
2023/05/12 08:34:41;;;;;;;10.77;8.35;;;;;;;;;;5092366;28;20028;-65
2023/05/12 08:37:07;;;;;;;10.30;8.65;;;;;;;;;;5091865;28;20020;-65
2023/05/12 08:39:32;;;;;;;10.15;8.32;;;;;;;;;;5091531;28;20023;-72
2023/05/12 08:42:16;;;;;;;9.07;8.18;;;;;;;;;;5091672;28;20028;-65
2023/05/12 08:44:42;;;;;;;11.48;7.75;;;;;;;;;;5056098;28;20036;-65
2023/05/12 08:47:08;;;;;;;9.55;7.50;;;;;;;;;;5060515;28;20878;-65
2023/05/12 08:49:34;;;;;;;10.63;8.18;;;;;;;;;;5068220;28;20099;-65
2023/05/12 08:52:00;;;;;;;9.90;6.00;;;;;;;;;;5091789;28;20084;-65
2023/05/12 08:54:26;;;;;;;8.23;6.05;;;;;;;;;;5091722;28;20103;-65
2023/05/12 08:56:52;;;;;;;7.97;5.38;;;;;;;;;;5074184;28;20034;-64
2023/05/12 08:59:18;;;;;;;11.52;5.95;;;;;;;;;;5069451;28;20036;-67
2023/05/12 09:01:46;;;;;;;6.13;5.35;;;;;;;;;;5068652;28;20032;-67
2023/05/12 09:04:12;;;;;;;6.68;5.50;;;;;;;;;;5066720;28;20496;-64
2023/05/12 09:06:37;;;;;;;5.63;4.45;;;;;;;;;;5063366;28;20545;-66
2023/05/12 09:09:02;;;;;;;6.88;4.85;;;;;;;;;;5063327;28;20043;-70
2023/05/12 09:11:28;;;;;;;5.40;4.90;;;;;;;;;;5059860;28;20081;-66
2023/05/12 09:14:01;;;;;;;8.48;5.40;;;;;;;;;;5065399;28;20283;-66
2023/05/12 09:16:31;;;;;;;6.68;4.53;;;;;;;;;;5058320;28;20205;-66
2023/05/12 09:18:57;;;;;;;6.50;4.38;;;;;;;;;;5070924;28;20046;-66
2023/05/12 09:21:23;;;;;;;6.35;4.40;;;;;;;;;;5073596;28;20463;-66
2023/05/12 09:23:51;;;;;;;6.93;4.45;;;;;;;;;;5071186;28;20027;-65
2023/05/12 09:26:16;;;;;;;10.52;4.80;;;;;;;;;;5065590;28;20143;-65
2023/05/12 09:28:42;;;;;;;6.05;4.30;;;;;;;;;;5069313;28;20028;-65
2023/05/12 09:31:14;;;;;;;5.40;4.55;;;;;;;;;;5073464;28;20119;-65
2023/05/12 09:33:40;;;;;;;4.78;3.40;;;;;;;;;;5050106;28;20213;-65
2023/05/12 09:36:05;;;;;;;6.57;4.32;;;;;;;;;;5045015;28;20815;-65
2023/05/12 09:38:30;;;;;;;5.53;4.05;;;;;;;;;;5055763;28;20107;-65
2023/05/12 09:40:55;;;;;;;8.07;4.13;;;;;;;;;;5055204;28;20040;-66
2023/05/12 09:43:21;;;;;;;7.15;4.18;;;;;;;;;;5055118;28;20135;-65
2023/05/12 09:45:48;;;;;;;5.00;3.90;;;;;;;;;;5068260;28;20046;-66
2023/05/12 09:48:14;;;;;;;5.25;4.03;;;;;;;;;;5071520;28;20024;-65
2023/05/12 09:50:46;;;;;;;6.82;4.15;;;;;;;;;;5070317;28;20032;-65
2023/05/12 09:53:11;;;;;;;4.80;3.28;;;;;;;;;;5080955;28;20055;-65
2023/05/12 09:55:37;;;;;;;4.88;3.08;;;;;;;;;;5052280;28;20034;-65
2023/05/12 09:58:07;;;;;;;4.38;2.95;;;;;;;;;;5039994;28;20874;-65
2023/05/12 10:00:33;;;;;;;6.15;3.38;;;;;;;;;;5044792;28;20027;-65
2023/05/12 10:02:59;;;;;;;4.45;3.05;;;;;;;;;;5051696;28;20024;-66
2023/05/12 10:05:24;;;;;;;7.35;2.33;;;;;;;;;;5045127;28;20028;-65
2023/05/12 10:07:51;;;;;;;3.67;2.17;;;;;;;;;;5041398;28;20835;-66
2023/05/12 10:10:22;;;;;;;6.03;2.30;;;;;;;;;;5043104;28;20062;-66
2023/05/12 10:12:47;;;;;;;3.28;1.90;;;;;;;;;;5043108;28;20879;-66
2023/05/12 10:15:13;;;;;;;6.45;2.40;;;;;;;;;;5041676;28;20028;-66
2023/05/12 10:17:39;;;;;;;3.78;2.20;;;;;;;;;;5047294;28;20028;-66
2023/05/12 10:20:05;;;;;;;4.68;2.40;;;;;;;;;;5051809;28;20130;-65
2023/05/12 10:22:33;;;;;;;4.13;2.47;;;;;;;;;;5054046;28;20051;-66
2023/05/12 10:24:59;;;;;;;5.05;2.80;;;;;;;;;;5048572;28;20127;-65
2023/05/12 10:27:25;;;;;;;3.30;2.50;;;;;;;;;;5067197;28;20496;-66
2023/05/12 10:29:51;;;;;;;3.65;2.55;;;;;;;;;;5071783;28;20032;-66
2023/05/12 10:32:16;;;;;;;4.13;2.28;;;;;;;;;;5089726;28;20096;-66
2023/05/12 10:34:42;;;;;;;5.53;3.40;;;;;;;;;;5093907;28;20024;-66
2023/05/12 10:37:09;;;;;;;4.32;2.80;;;;;;;;;;5094278;28;20031;-66
2023/05/12 10:39:35;;;;;;;3.78;2.85;;;;;;;;;;5093007;28;20486;-66
2023/05/12 10:42:04;;;;;;;4.43;2.80;;;;;;;;;;5092933;28;20039;-66
2023/05/12 10:44:29;;;;;;;3.65;2.55;;;;;;;;;;5081965;28;20023;-67
2023/05/12 10:46:56;;;;;;;4.72;3.03;;;;;;;;;;5093784;28;20032;-67
2023/05/12 10:49:31;;;;;;;4.55;2.60;;;;;;;;;;5093160;28;20032;-66
2023/05/12 10:51:58;;;;;;;6.30;2.85;;;;;;;;;;5093373;28;20028;-67
2023/05/12 10:54:24;;;;;;;4.50;2.58;;;;;;;;;;5092986;28;20107;-66
2023/05/12 10:56:50;;;;;;;3.70;2.88;;;;;;;;;;5089490;28;20497;-67
2023/05/12 10:59:16;;;;;;;3.45;1.92;;;;;;;;;;5088792;28;20020;-66
2023/05/12 11:02:01;;;;;;;4.30;2.50;;;;;;;;;;5092713;28;20095;-67
2023/05/12 11:04:36;;;;;;;5.22;2.78;;;;;;;;;;5093027;28;20085;-67
2023/05/12 11:07:03;;;;;;;3.30;2.10;;;;;;;;;;5092839;28;20100;-66
2023/05/12 11:09:28;;;;;;;3.95;2.22;;;;;;;;;;5093565;28;20032;-66
2023/05/12 11:11:53;;;;;;;4.43;2.72;;;;;;;;;;5093884;28;20032;-66
2023/05/12 11:14:19;;;;;;;4.50;2.13;;;;;;;;;;5075336;28;20107;-67
2023/05/12 11:16:45;;;;;;;6.80;2.22;;;;;;;;;;5093253;28;20023;-67
2023/05/12 11:19:10;;;;;;;6.15;2.53;;;;;;;;;;5093524;28;20028;-67
2023/05/12 11:21:36;;;;;;;4.03;2.28;;;;;;;;;;5093273;28;20024;-66
2023/05/12 11:24:01;;;;;;;3.63;2.30;;;;;;;;;;5092986;28;20123;-67
2023/05/12 11:26:29;;;;;;;2.83;1.90;;;;;;;;;;5092321;28;20020;-66
2023/05/12 11:28:58;;;;;;;5.65;2.70;;;;;;;;;;5092340;28;20095;-67
2023/05/12 11:31:24;;;;;;;10.75;2.45;;;;;;;;;;5093835;28;20028;-67
2023/05/12 11:33:49;;;;;;;7.68;2.75;;;;;;;;;;5093368;28;20531;-67
2023/05/12 11:36:20;;;;;;;4.93;2.28;;;;;;;;;;5092533;28;20064;-67
2023/05/12 11:38:51;;;;;;;3.63;2.05;;;;;;;;;;5093076;28;20122;-67
2023/05/12 11:41:23;;;;;;;3.40;1.90;;;;;;;;;;5092221;28;20019;-67
2023/05/12 11:43:48;;;;;;;3.63;2.05;;;;;;;;;;5074864;28;20078;-66
2023/05/12 11:46:22;;;;;;;3.77;2.13;;;;;;;;;;5093604;28;20051;-66
2023/05/12 11:48:52;;;;;;;4.28;1.83;;;;;;;;;;5093146;28;20350;-66
2023/05/12 11:51:18;;;;;;;3.30;1.85;;;;;;;;;;5092576;28;20024;-65
2023/05/12 11:53:46;;;;;;;5.40;1.50;;;;;;;;;;5075317;28;20513;-66
2023/05/12 11:56:17;;;;;;;4.13;1.13;;;;;;;;;;5088660;28;20102;-66
2023/05/12 11:58:50;;;;;;;18.10;1.83;;;;;;;;;;5088589;28;20028;-66
2023/05/12 12:01:16;;;;;;;4.07;1.40;;;;;;;;;;5085174;28;20162;-65
2023/05/12 12:03:47;;;;;;;4.13;1.63;;;;;;;;;;5070915;28;20079;-66
2023/05/12 12:06:12;;;;;;;2.58;1.13;;;;;;;;;;5079946;28;20032;-65
2023/05/12 12:08:47;;;;;;;2.25;1.17;;;;;;;;;;5081520;28;20486;-65
2023/05/12 12:11:13;;;;;;;4.28;1.45;;;;;;;;;;5072057;28;20028;-64
2023/05/12 12:13:46;;;;;;;4.78;1.30;;;;;;;;;;5080987;28;20038;-64
2023/05/12 12:16:11;;;;;;;2.75;1.50;;;;;;;;;;5081677;28;20070;-65
2023/05/12 12:18:36;;;;;;;3.43;1.70;;;;;;;;;;5078860;28;20024;-65
2023/05/12 12:21:01;;;;;;;4.00;1.35;;;;;;;;;;5069856;28;20274;-65
2023/05/12 12:23:27;;;;;;;3.25;1.67;;;;;;;;;;5073744;28;20130;-65
2023/05/12 12:25:52;;;;;;;6.87;1.70;;;;;;;;;;5067905;28;20893;-65
2023/05/12 12:28:17;;;;;;;3.33;1.67;;;;;;;;;;5074142;28;20405;-65
2023/05/12 12:30:42;;;;;;;10.53;2.00;;;;;;;;;;5073985;28;20274;-65
2023/05/12 12:33:07;;;;;;;3.90;1.73;;;;;;;;;;5076300;28;20683;-65
2023/05/12 12:35:33;;;;;;;5.70;2.10;;;;;;;;;;5078690;28;20289;-65
2023/05/12 12:37:59;;;;;;;5.40;1.67;;;;;;;;;;5071426;28;20372;-65
2023/05/12 12:40:24;;;;;;;4.35;1.58;;;;;;;;;;5069662;28;20131;-64
2023/05/12 12:42:49;;;;;;;4.18;1.75;;;;;;;;;;5072499;28;20071;-64
2023/05/12 12:45:15;;;;;;;5.68;2.15;;;;;;;;;;5077636;28;20541;-63
2023/05/12 12:47:41;;;;;;;12.30;2.53;;;;;;;;;;5075256;28;20024;-65
2023/05/12 12:50:08;;;;;;;4.43;1.77;;;;;;;;;;5035440;28;20083;-66
2023/05/12 12:52:33;;;;;;;3.50;1.65;;;;;;;;;;5047019;28;20853;-64
2023/05/12 12:54:58;;;;;;;2.78;1.40;;;;;;;;;;5048711;28;20032;-64
2023/05/12 12:57:24;;;;;;;4.50;1.98;;;;;;;;;;5046189;28;20081;-64
2023/05/12 12:59:50;;;;;;;3.95;1.60;;;;;;;;;;5064860;28;20035;-66
2023/05/12 13:02:16;;;;;;;3.92;1.65;;;;;;;;;;5084243;28;20027;-66
2023/05/12 13:04:41;;;;;;;3.70;1.70;;;;;;;;;;5090452;28;20040;-66
2023/05/12 13:07:07;;;;;;;2.42;1.55;;;;;;;;;;5082919;28;20128;-66
2023/05/12 13:09:33;;;;;;;3.78;1.75;;;;;;;;;;5091063;28;20019;-66
2023/05/12 13:11:58;;;;;;;2.75;1.45;;;;;;;;;;5090978;28;20099;-66
2023/05/12 13:14:24;;;;;;;4.28;2.03;;;;;;;;;;5072732;28;20038;-66
2023/05/12 13:16:49;;;;;;;12.02;2.15;;;;;;;;;;5090282;28;20028;-66
2023/05/12 13:19:14;;;;;;;3.33;2.05;;;;;;;;;;5090075;28;20031;-66
2023/05/12 13:21:40;;;;;;;4.80;2.25;;;;;;;;;;5088808;28;20030;-65
2023/05/12 13:24:06;;;;;;;6.35;2.22;;;;;;;;;;5080393;28;20024;-63
2023/05/12 13:26:31;;;;;;;4.72;1.80;;;;;;;;;;5090065;28;20020;-65
2023/05/12 13:28:56;;;;;;;4.43;1.90;;;;;;;;;;5084913;28;20028;-65
2023/05/12 13:31:21;;;;;;;8.65;2.35;;;;;;;;;;5080735;28;20277;-64
2023/05/12 13:33:47;;;;;;;3.13;1.80;;;;;;;;;;5077778;28;20028;-66
2023/05/12 13:36:12;;;;;;;7.07;2.07;;;;;;;;;;5047703;28;20067;-66
2023/05/12 13:38:37;;;;;;;2.83;1.77;;;;;;;;;;5055755;28;20274;-67
2023/05/12 13:41:03;;;;;;;4.10;2.03;;;;;;;;;;5052815;28;21232;-67
2023/05/12 13:43:28;;;;;;;7.03;2.30;;;;;;;;;;5047802;28;20066;-66
2023/05/12 13:45:53;;;;;;;4.95;2.45;;;;;;;;;;5044495;28;20024;-66
2023/05/12 13:48:19;;;;;;;8.43;2.03;;;;;;;;;;5052397;28;20059;-66
2023/05/12 13:50:44;;;;;;;4.18;2.17;;;;;;;;;;5051587;28;20032;-66
2023/05/12 13:53:11;;;;;;;4.65;2.30;;;;;;;;;;5075318;28;20027;-65
2023/05/12 13:55:37;;;;;;;4.47;2.22;;;;;;;;;;5056422;28;20074;-67
2023/05/12 13:58:03;;;;;;;4.70;2.05;;;;;;;;;;5050758;28;20148;-67
2023/05/12 14:00:28;;;;;;;3.88;2.50;;;;;;;;;;5049958;28;20899;-66
2023/05/12 14:02:55;;;;;;;2.85;1.83;;;;;;;;;;5042585;28;20016;-67
2023/05/12 14:05:20;;;;;;;3.65;1.85;;;;;;;;;;5045196;28;20115;-67
2023/05/12 14:07:46;;;;;;;3.75;2.00;;;;;;;;;;5048550;28;20759;-67
2023/05/12 14:10:11;;;;;;;4.07;2.58;;;;;;;;;;5050807;28;20140;-66
2023/05/12 14:12:36;;;;;;;7.75;2.85;;;;;;;;;;5063418;28;20093;-66
2023/05/12 14:15:02;;;;;;;4.50;2.70;;;;;;;;;;5074479;28;20528;-66
2023/05/12 14:17:27;;;;;;;5.50;3.05;;;;;;;;;;5081175;28;20286;-66
2023/05/12 14:19:53;;;;;;;29.90;5.35;;;;;;;;;;5085356;28;20054;-72
2023/05/12 14:22:18;;;;;;;6.13;4.00;;;;;;;;;;5088103;28;20132;-66